sensor_id;sensor_type;location;lat;lon;timestamp;pressure;altitude;pressure_sealevel;temperature
72278;BMP280;61204;49.980;8.358;2023-03-14T00:02:09;98600.38;;;10.70
72278;BMP280;61204;49.980;8.358;2023-03-14T00:04:35;98597.06;;;10.74
72278;BMP280;61204;49.980;8.358;2023-03-14T00:07:01;98614.72;;;10.86
72278;BMP280;61204;49.980;8.358;2023-03-14T00:09:27;98637.03;;;10.97
72278;BMP280;61204;49.980;8.358;2023-03-14T00:11:54;98639.53;;;10.90
72278;BMP280;61204;49.980;8.358;2023-03-14T00:14:21;98633.81;;;10.84
72278;BMP280;61204;49.980;8.358;2023-03-14T00:16:47;98636.03;;;10.88
72278;BMP280;61204;49.980;8.358;2023-03-14T00:19:13;98626.81;;;10.81
72278;BMP280;61204;49.980;8.358;2023-03-14T00:21:39;98622.78;;;10.82
72278;BMP280;61204;49.980;8.358;2023-03-14T00:24:04;98625.75;;;10.88
72278;BMP280;61204;49.980;8.358;2023-03-14T00:26:31;98615.25;;;10.83
72278;BMP280;61204;49.980;8.358;2023-03-14T00:28:56;98623.47;;;10.83
72278;BMP280;61204;49.980;8.358;2023-03-14T00:31:22;98616.19;;;10.89
72278;BMP280;61204;49.980;8.358;2023-03-14T00:33:47;98620.72;;;11.01
72278;BMP280;61204;49.980;8.358;2023-03-14T00:36:14;98612.81;;;10.91
72278;BMP280;61204;49.980;8.358;2023-03-14T00:38:42;98626.94;;;11.01
72278;BMP280;61204;49.980;8.358;2023-03-14T00:41:14;98611.97;;;11.04
72278;BMP280;61204;49.980;8.358;2023-03-14T00:43:42;98601.47;;;10.99
72278;BMP280;61204;49.980;8.358;2023-03-14T00:46:08;98604.06;;;10.95
72278;BMP280;61204;49.980;8.358;2023-03-14T00:48:35;98589.66;;;10.94
72278;BMP280;61204;49.980;8.358;2023-03-14T00:51:01;98586.63;;;10.86
72278;BMP280;61204;49.980;8.358;2023-03-14T00:53:29;98585.97;;;10.87
72278;BMP280;61204;49.980;8.358;2023-03-14T00:55:55;98587.31;;;10.86
72278;BMP280;61204;49.980;8.358;2023-03-14T00:58:20;98592.09;;;10.86
72278;BMP280;61204;49.980;8.358;2023-03-14T01:00:45;98592.22;;;10.90
72278;BMP280;61204;49.980;8.358;2023-03-14T01:03:11;98603.19;;;10.90
72278;BMP280;61204;49.980;8.358;2023-03-14T01:05:39;98607.59;;;10.97
72278;BMP280;61204;49.980;8.358;2023-03-14T01:08:05;98613.13;;;10.99
72278;BMP280;61204;49.980;8.358;2023-03-14T01:10:32;98625.59;;;11.02
72278;BMP280;61204;49.980;8.358;2023-03-14T01:12:58;98617.59;;;10.90
72278;BMP280;61204;49.980;8.358;2023-03-14T01:15:23;98628.34;;;11.02
72278;BMP280;61204;49.980;8.358;2023-03-14T01:17:49;98621.59;;;11.05
72278;BMP280;61204;49.980;8.358;2023-03-14T01:20:15;98624.56;;;11.11
72278;BMP280;61204;49.980;8.358;2023-03-14T01:22:42;98625.66;;;11.04
72278;BMP280;61204;49.980;8.358;2023-03-14T01:25:10;98617.50;;;11.06
72278;BMP280;61204;49.980;8.358;2023-03-14T01:27:40;98611.25;;;11.04
72278;BMP280;61204;49.980;8.358;2023-03-14T01:30:06;98618.78;;;11.03
72278;BMP280;61204;49.980;8.358;2023-03-14T01:32:35;98617.13;;;11.14
72278;BMP280;61204;49.980;8.358;2023-03-14T01:35:03;98613.31;;;11.03
72278;BMP280;61204;49.980;8.358;2023-03-14T01:37:32;98602.34;;;11.03
72278;BMP280;61204;49.980;8.358;2023-03-14T01:39:57;98597.47;;;11.02
72278;BMP280;61204;49.980;8.358;2023-03-14T01:42:23;98601.31;;;11.12
72278;BMP280;61204;49.980;8.358;2023-03-14T01:44:53;98581.22;;;11.08
72278;BMP280;61204;49.980;8.358;2023-03-14T01:47:26;98570.53;;;10.96
72278;BMP280;61204;49.980;8.358;2023-03-14T01:55:08;98567.31;;;11.02
72278;BMP280;61204;49.980;8.358;2023-03-14T01:57:43;98555.44;;;10.95
72278;BMP280;61204;49.980;8.358;2023-03-14T02:00:16;98551.78;;;11.08
72278;BMP280;61204;49.980;8.358;2023-03-14T02:02:50;98547.56;;;11.05
72278;BMP280;61204;49.980;8.358;2023-03-14T02:05:26;98549.13;;;11.10
72278;BMP280;61204;49.980;8.358;2023-03-14T02:08:01;98536.66;;;11.07
72278;BMP280;61204;49.980;8.358;2023-03-14T02:10:32;98536.59;;;11.05
72278;BMP280;61204;49.980;8.358;2023-03-14T02:13:04;98527.09;;;11.08
72278;BMP280;61204;49.980;8.358;2023-03-14T02:15:31;98524.84;;;11.03
72278;BMP280;61204;49.980;8.358;2023-03-14T02:17:58;98521.78;;;11.12
72278;BMP280;61204;49.980;8.358;2023-03-14T02:23:04;98501.25;;;11.13
72278;BMP280;61204;49.980;8.358;2023-03-14T02:25:41;98511.53;;;11.13
72278;BMP280;61204;49.980;8.358;2023-03-14T02:28:16;98505.25;;;11.10
72278;BMP280;61204;49.980;8.358;2023-03-14T02:30:43;98499.19;;;11.14
72278;BMP280;61204;49.980;8.358;2023-03-14T02:33:10;98500.56;;;11.13
72278;BMP280;61204;49.980;8.358;2023-03-14T02:41:30;98484.56;;;10.87
72278;BMP280;61204;49.980;8.358;2023-03-14T02:44:00;98486.44;;;10.83
72278;BMP280;61204;49.980;8.358;2023-03-14T02:46:26;98492.09;;;10.87
72278;BMP280;61204;49.980;8.358;2023-03-14T02:51:25;98494.81;;;10.87
72278;BMP280;61204;49.980;8.358;2023-03-14T02:53:54;98484.41;;;10.83
72278;BMP280;61204;49.980;8.358;2023-03-14T02:56:19;98487.75;;;10.82
72278;BMP280;61204;49.980;8.358;2023-03-14T02:58:48;98482.28;;;10.82
72278;BMP280;61204;49.980;8.358;2023-03-14T03:01:15;98480.25;;;10.82
72278;BMP280;61204;49.980;8.358;2023-03-14T03:03:41;98487.03;;;10.81
72278;BMP280;61204;49.980;8.358;2023-03-14T03:06:06;98478.81;;;10.81
72278;BMP280;61204;49.980;8.358;2023-03-14T03:08:32;98485.91;;;10.69
72278;BMP280;61204;49.980;8.358;2023-03-14T03:10:58;98497.03;;;10.73
72278;BMP280;61204;49.980;8.358;2023-03-14T03:13:24;98490.56;;;10.64
72278;BMP280;61204;49.980;8.358;2023-03-14T03:15:50;98484.22;;;10.59
72278;BMP280;61204;49.980;8.358;2023-03-14T03:18:16;98480.31;;;10.65
72278;BMP280;61204;49.980;8.358;2023-03-14T03:20:41;98476.16;;;10.64
72278;BMP280;61204;49.980;8.358;2023-03-14T03:23:07;98464.16;;;10.73
72278;BMP280;61204;49.980;8.358;2023-03-14T03:25:34;98482.53;;;10.70
72278;BMP280;61204;49.980;8.358;2023-03-14T03:28:00;98462.13;;;10.73
72278;BMP280;61204;49.980;8.358;2023-03-14T03:30:25;98470.28;;;10.71
72278;BMP280;61204;49.980;8.358;2023-03-14T03:32:51;98474.41;;;10.72
72278;BMP280;61204;49.980;8.358;2023-03-14T03:35:16;98481.97;;;10.74
72278;BMP280;61204;49.980;8.358;2023-03-14T03:37:45;98482.63;;;10.72
72278;BMP280;61204;49.980;8.358;2023-03-14T03:40:10;98469.78;;;10.77
72278;BMP280;61204;49.980;8.358;2023-03-14T03:42:36;98457.56;;;10.80
72278;BMP280;61204;49.980;8.358;2023-03-14T03:45:04;98451.16;;;10.73
72278;BMP280;61204;49.980;8.358;2023-03-14T03:47:30;98446.22;;;10.70
72278;BMP280;61204;49.980;8.358;2023-03-14T03:49:58;98436.28;;;10.78
72278;BMP280;61204;49.980;8.358;2023-03-14T03:52:24;98431.28;;;10.73
72278;BMP280;61204;49.980;8.358;2023-03-14T03:54:49;98433.84;;;10.69
72278;BMP280;61204;49.980;8.358;2023-03-14T03:57:15;98428.59;;;10.75
72278;BMP280;61204;49.980;8.358;2023-03-14T03:59:40;98431.28;;;10.73
72278;BMP280;61204;49.980;8.358;2023-03-14T04:02:06;98427.25;;;10.76
72278;BMP280;61204;49.980;8.358;2023-03-14T04:04:32;98437.16;;;10.85
72278;BMP280;61204;49.980;8.358;2023-03-14T04:06:59;98441.13;;;10.80
72278;BMP280;61204;49.980;8.358;2023-03-14T04:09:25;98444.00;;;10.84
72278;BMP280;61204;49.980;8.358;2023-03-14T04:11:50;98437.81;;;10.83
72278;BMP280;61204;49.980;8.358;2023-03-14T04:14:16;98432.03;;;10.75
72278;BMP280;61204;49.980;8.358;2023-03-14T04:16:41;98436.88;;;10.77
72278;BMP280;61204;49.980;8.358;2023-03-14T04:19:07;98439.09;;;10.80
72278;BMP280;61204;49.980;8.358;2023-03-14T04:21:34;98438.66;;;10.88
72278;BMP280;61204;49.980;8.358;2023-03-14T04:24:02;98447.81;;;10.95
72278;BMP280;61204;49.980;8.358;2023-03-14T04:26:28;98430.44;;;10.88
72278;BMP280;61204;49.980;8.358;2023-03-14T04:28:54;98436.16;;;10.94
72278;BMP280;61204;49.980;8.358;2023-03-14T04:31:22;98434.66;;;10.91
72278;BMP280;61204;49.980;8.358;2023-03-14T04:33:47;98440.19;;;10.93
72278;BMP280;61204;49.980;8.358;2023-03-14T04:36:13;98435.84;;;10.86
72278;BMP280;61204;49.980;8.358;2023-03-14T04:38:41;98443.03;;;10.95
72278;BMP280;61204;49.980;8.358;2023-03-14T04:41:09;98434.00;;;10.93
72278;BMP280;61204;49.980;8.358;2023-03-14T04:43:34;98443.13;;;10.97
72278;BMP280;61204;49.980;8.358;2023-03-14T04:46:00;98430.16;;;10.80
72278;BMP280;61204;49.980;8.358;2023-03-14T04:48:26;98433.44;;;10.76
72278;BMP280;61204;49.980;8.358;2023-03-14T04:50:54;98423.13;;;10.75
72278;BMP280;61204;49.980;8.358;2023-03-14T04:53:22;98412.34;;;10.61
72278;BMP280;61204;49.980;8.358;2023-03-14T04:55:52;98418.38;;;10.57
72278;BMP280;61204;49.980;8.358;2023-03-14T04:58:22;98411.72;;;10.62
72278;BMP280;61204;49.980;8.358;2023-03-14T05:00:48;98418.81;;;10.70
72278;BMP280;61204;49.980;8.358;2023-03-14T05:03:15;98420.16;;;10.69
72278;BMP280;61204;49.980;8.358;2023-03-14T05:05:42;98408.50;;;10.68
72278;BMP280;61204;49.980;8.358;2023-03-14T05:08:08;98406.94;;;10.63
72278;BMP280;61204;49.980;8.358;2023-03-14T05:10:34;98394.78;;;10.48
72278;BMP280;61204;49.980;8.358;2023-03-14T05:12:59;98385.44;;;10.55
72278;BMP280;61204;49.980;8.358;2023-03-14T05:15:25;98387.47;;;10.55
72278;BMP280;61204;49.980;8.358;2023-03-14T05:17:50;98389.72;;;10.60
72278;BMP280;61204;49.980;8.358;2023-03-14T05:20:16;98385.50;;;10.57
72278;BMP280;61204;49.980;8.358;2023-03-14T05:22:44;98393.97;;;10.64
72278;BMP280;61204;49.980;8.358;2023-03-14T05:25:09;98388.63;;;10.68
72278;BMP280;61204;49.980;8.358;2023-03-14T05:27:35;98398.78;;;10.65
72278;BMP280;61204;49.980;8.358;2023-03-14T05:30:01;98399.56;;;10.68
72278;BMP280;61204;49.980;8.358;2023-03-14T05:32:28;98414.16;;;10.74
72278;BMP280;61204;49.980;8.358;2023-03-14T05:34:54;98425.78;;;10.73
72278;BMP280;61204;49.980;8.358;2023-03-14T05:37:23;98419.09;;;10.78
72278;BMP280;61204;49.980;8.358;2023-03-14T05:39:49;98423.34;;;10.81
72278;BMP280;61204;49.980;8.358;2023-03-14T05:42:14;98418.50;;;10.79
72278;BMP280;61204;49.980;8.358;2023-03-14T05:44:40;98420.72;;;10.85
72278;BMP280;61204;49.980;8.358;2023-03-14T05:47:05;98413.63;;;10.78
72278;BMP280;61204;49.980;8.358;2023-03-14T05:49:31;98420.81;;;10.87
72278;BMP280;61204;49.980;8.358;2023-03-14T05:51:56;98407.72;;;10.85
72278;BMP280;61204;49.980;8.358;2023-03-14T05:54:22;98404.22;;;10.83
72278;BMP280;61204;49.980;8.358;2023-03-14T05:56:47;98415.53;;;10.93
72278;BMP280;61204;49.980;8.358;2023-03-14T05:59:12;98407.88;;;10.89
72278;BMP280;61204;49.980;8.358;2023-03-14T06:01:39;98404.91;;;10.83
72278;BMP280;61204;49.980;8.358;2023-03-14T06:04:05;98401.41;;;10.81
72278;BMP280;61204;49.980;8.358;2023-03-14T06:06:33;98391.13;;;10.81
72278;BMP280;61204;49.980;8.358;2023-03-14T06:08:58;98401.69;;;10.89
72278;BMP280;61204;49.980;8.358;2023-03-14T06:11:24;98382.63;;;10.93
72278;BMP280;61204;49.980;8.358;2023-03-14T06:13:50;98382.56;;;10.91
72278;BMP280;61204;49.980;8.358;2023-03-14T06:16:16;98382.34;;;10.85
72278;BMP280;61204;49.980;8.358;2023-03-14T06:18:41;98379.56;;;10.83
72278;BMP280;61204;49.980;8.358;2023-03-14T06:21:07;98368.47;;;10.79
72278;BMP280;61204;49.980;8.358;2023-03-14T06:23:33;98369.06;;;10.77
72278;BMP280;61204;49.980;8.358;2023-03-14T06:26:00;98353.88;;;10.74
72278;BMP280;61204;49.980;8.358;2023-03-14T06:28:26;98356.72;;;10.76
72278;BMP280;61204;49.980;8.358;2023-03-14T06:30:52;98360.53;;;10.87
72278;BMP280;61204;49.980;8.358;2023-03-14T06:33:17;98368.44;;;10.99
72278;BMP280;61204;49.980;8.358;2023-03-14T06:35:42;98359.50;;;10.98
72278;BMP280;61204;49.980;8.358;2023-03-14T06:38:08;98352.06;;;11.01
72278;BMP280;61204;49.980;8.358;2023-03-14T06:40:34;98360.56;;;10.89
72278;BMP280;61204;49.980;8.358;2023-03-14T06:42:59;98353.47;;;11.02
72278;BMP280;61204;49.980;8.358;2023-03-14T06:45:25;98361.06;;;11.03
72278;BMP280;61204;49.980;8.358;2023-03-14T06:47:50;98352.78;;;11.01
72278;BMP280;61204;49.980;8.358;2023-03-14T06:50:18;98349.19;;;10.97
72278;BMP280;61204;49.980;8.358;2023-03-14T06:52:47;98346.94;;;10.91
72278;BMP280;61204;49.980;8.358;2023-03-14T06:55:13;98361.63;;;11.00
72278;BMP280;61204;49.980;8.358;2023-03-14T06:57:39;98368.16;;;11.10
72278;BMP280;61204;49.980;8.358;2023-03-14T07:00:05;98375.94;;;11.18
72278;BMP280;61204;49.980;8.358;2023-03-14T07:02:32;98366.38;;;11.19
72278;BMP280;61204;49.980;8.358;2023-03-14T07:04:58;98374.59;;;11.19
72278;BMP280;61204;49.980;8.358;2023-03-14T07:07:24;98368.94;;;11.13
72278;BMP280;61204;49.980;8.358;2023-03-14T07:09:49;98362.25;;;11.18
72278;BMP280;61204;49.980;8.358;2023-03-14T07:12:14;98371.38;;;11.25
72278;BMP280;61204;49.980;8.358;2023-03-14T07:14:40;98372.84;;;11.28
72278;BMP280;61204;49.980;8.358;2023-03-14T07:17:05;98383.84;;;11.30
72278;BMP280;61204;49.980;8.358;2023-03-14T07:19:31;98373.56;;;11.28
72278;BMP280;61204;49.980;8.358;2023-03-14T07:21:56;98381.69;;;11.26
72278;BMP280;61204;49.980;8.358;2023-03-14T07:24:22;98374.03;;;11.23
72278;BMP280;61204;49.980;8.358;2023-03-14T07:26:47;98381.94;;;11.12
72278;BMP280;61204;49.980;8.358;2023-03-14T07:29:13;98375.94;;;11.18
72278;BMP280;61204;49.980;8.358;2023-03-14T07:31:38;98394.44;;;11.17
72278;BMP280;61204;49.980;8.358;2023-03-14T07:34:04;98383.53;;;11.20
72278;BMP280;61204;49.980;8.358;2023-03-14T07:36:29;98398.72;;;11.23
72278;BMP280;61204;49.980;8.358;2023-03-14T07:38:54;98397.31;;;11.22
72278;BMP280;61204;49.980;8.358;2023-03-14T07:41:22;98398.16;;;11.26
72278;BMP280;61204;49.980;8.358;2023-03-14T07:43:48;98407.03;;;11.25
72278;BMP280;61204;49.980;8.358;2023-03-14T07:46:14;98398.16;;;11.26
72278;BMP280;61204;49.980;8.358;2023-03-14T07:48:40;98396.13;;;11.27
72278;BMP280;61204;49.980;8.358;2023-03-14T07:51:06;98400.31;;;11.30
72278;BMP280;61204;49.980;8.358;2023-03-14T07:53:32;98409.94;;;11.31
72278;BMP280;61204;49.980;8.358;2023-03-14T07:56:00;98402.94;;;11.26
72278;BMP280;61204;49.980;8.358;2023-03-14T07:58:26;98409.66;;;11.21
72278;BMP280;61204;49.980;8.358;2023-03-14T08:00:51;98401.03;;;11.30
72278;BMP280;61204;49.980;8.358;2023-03-14T08:03:18;98411.56;;;11.38
72278;BMP280;61204;49.980;8.358;2023-03-14T08:05:43;98414.44;;;11.42
72278;BMP280;61204;49.980;8.358;2023-03-14T08:08:13;98407.41;;;11.37
72278;BMP280;61204;49.980;8.358;2023-03-14T08:10:41;98413.75;;;11.41
72278;BMP280;61204;49.980;8.358;2023-03-14T08:13:07;98407.13;;;11.49
72278;BMP280;61204;49.980;8.358;2023-03-14T08:15:33;98398.09;;;11.46
72278;BMP280;61204;49.980;8.358;2023-03-14T08:18:02;98407.94;;;11.53
72278;BMP280;61204;49.980;8.358;2023-03-14T08:20:28;98416.06;;;11.49
72278;BMP280;61204;49.980;8.358;2023-03-14T08:22:58;98397.84;;;11.58
72278;BMP280;61204;49.980;8.358;2023-03-14T08:25:25;98404.47;;;11.51
72278;BMP280;61204;49.980;8.358;2023-03-14T08:27:52;98409.28;;;11.52
72278;BMP280;61204;49.980;8.358;2023-03-14T08:30:18;98409.75;;;11.66
72278;BMP280;61204;49.980;8.358;2023-03-14T08:32:46;98391.44;;;11.73
72278;BMP280;61204;49.980;8.358;2023-03-14T08:35:15;98411.81;;;11.88
72278;BMP280;61204;49.980;8.358;2023-03-14T08:37:41;98395.94;;;12.08
72278;BMP280;61204;49.980;8.358;2023-03-14T08:40:07;98402.88;;;12.11
72278;BMP280;61204;49.980;8.358;2023-03-14T08:42:34;98401.44;;;12.08
72278;BMP280;61204;49.980;8.358;2023-03-14T08:45:01;98406.03;;;12.01
72278;BMP280;61204;49.980;8.358;2023-03-14T08:47:28;98411.56;;;12.04
72278;BMP280;61204;49.980;8.358;2023-03-14T08:49:54;98402.78;;;12.07
72278;BMP280;61204;49.980;8.358;2023-03-14T08:52:19;98419.19;;;12.29
72278;BMP280;61204;49.980;8.358;2023-03-14T08:54:45;98419.09;;;12.49
72278;BMP280;61204;49.980;8.358;2023-03-14T08:57:11;98420.09;;;12.60
72278;BMP280;61204;49.980;8.358;2023-03-14T08:59:36;98419.94;;;12.55
72278;BMP280;61204;49.980;8.358;2023-03-14T09:02:02;98413.94;;;12.61
72278;BMP280;61204;49.980;8.358;2023-03-14T09:04:31;98403.31;;;12.75
72278;BMP280;61204;49.980;8.358;2023-03-14T09:06:57;98390.28;;;12.76
72278;BMP280;61204;49.980;8.358;2023-03-14T09:09:24;98392.44;;;12.79
72278;BMP280;61204;49.980;8.358;2023-03-14T09:11:52;98413.78;;;12.81
72278;BMP280;61204;49.980;8.358;2023-03-14T09:14:18;98421.75;;;12.71
72278;BMP280;61204;49.980;8.358;2023-03-14T09:16:43;98412.56;;;12.62
72278;BMP280;61204;49.980;8.358;2023-03-14T09:19:09;98419.00;;;12.71
72278;BMP280;61204;49.980;8.358;2023-03-14T09:21:35;98421.03;;;12.70
72278;BMP280;61204;49.980;8.358;2023-03-14T09:24:04;98417.44;;;12.64
72278;BMP280;61204;49.980;8.358;2023-03-14T09:26:30;98424.13;;;12.56
72278;BMP280;61204;49.980;8.358;2023-03-14T09:28:56;98421.84;;;12.49
72278;BMP280;61204;49.980;8.358;2023-03-14T09:31:22;98429.50;;;12.52
72278;BMP280;61204;49.980;8.358;2023-03-14T09:33:47;98445.88;;;12.48
72278;BMP280;61204;49.980;8.358;2023-03-14T09:36:15;98435.22;;;12.37
72278;BMP280;61204;49.980;8.358;2023-03-14T09:38:41;98431.16;;;12.38
72278;BMP280;61204;49.980;8.358;2023-03-14T09:41:12;98430.47;;;12.39
72278;BMP280;61204;49.980;8.358;2023-03-14T09:43:45;98440.72;;;12.37
72278;BMP280;61204;49.980;8.358;2023-03-14T09:46:19;98451.66;;;12.35
72278;BMP280;61204;49.980;8.358;2023-03-14T09:48:46;98439.97;;;12.34
72278;BMP280;61204;49.980;8.358;2023-03-14T09:51:17;98444.88;;;12.38
72278;BMP280;61204;49.980;8.358;2023-03-14T09:53:49;98436.56;;;12.36
72278;BMP280;61204;49.980;8.358;2023-03-14T09:56:18;98431.16;;;12.38
72278;BMP280;61204;49.980;8.358;2023-03-14T09:58:54;98429.91;;;12.43
72278;BMP280;61204;49.980;8.358;2023-03-14T10:01:28;98451.25;;;12.44
72278;BMP280;61204;49.980;8.358;2023-03-14T10:04:05;98431.59;;;12.54
72278;BMP280;61204;49.980;8.358;2023-03-14T10:06:38;98435.63;;;12.51
72278;BMP280;61204;49.980;8.358;2023-03-14T10:09:08;98425.38;;;12.53
72278;BMP280;61204;49.980;8.358;2023-03-14T10:11:50;98432.25;;;12.52
72278;BMP280;61204;49.980;8.358;2023-03-14T10:14:28;98416.84;;;12.43
72278;BMP280;61204;49.980;8.358;2023-03-14T10:17:07;98408.56;;;12.41
72278;BMP280;61204;49.980;8.358;2023-03-14T10:19:36;98412.44;;;12.56
72278;BMP280;61204;49.980;8.358;2023-03-14T10:22:15;98408.19;;;12.53
72278;BMP280;61204;49.980;8.358;2023-03-14T10:24:40;98400.13;;;12.59
72278;BMP280;61204;49.980;8.358;2023-03-14T10:27:21;98397.09;;;12.49
72278;BMP280;61204;49.980;8.358;2023-03-14T10:30:01;98382.59;;;12.46
72278;BMP280;61204;49.980;8.358;2023-03-14T10:32:35;98390.44;;;12.32
72278;BMP280;61204;49.980;8.358;2023-03-14T10:40:26;98395.72;;;12.24
72278;BMP280;61204;49.980;8.358;2023-03-14T10:43:00;98395.28;;;12.34
72278;BMP280;61204;49.980;8.358;2023-03-14T10:45:41;98400.84;;;12.36
72278;BMP280;61204;49.980;8.358;2023-03-14T10:53:25;98395.66;;;12.46
72278;BMP280;61204;49.980;8.358;2023-03-14T10:55:51;98397.81;;;12.49
72278;BMP280;61204;49.980;8.358;2023-03-14T10:58:21;98402.84;;;12.57
72278;BMP280;61204;49.980;8.358;2023-03-14T11:01:36;98401.47;;;12.58
72278;BMP280;61204;49.980;8.358;2023-03-14T11:06:54;98411.84;;;12.60
72278;BMP280;61204;49.980;8.358;2023-03-14T11:09:36;98409.50;;;12.50
72278;BMP280;61204;49.980;8.358;2023-03-14T11:21:11;98401.94;;;12.50
72278;BMP280;61204;49.980;8.358;2023-03-14T11:24:01;98404.94;;;12.58
72278;BMP280;61204;49.980;8.358;2023-03-14T11:29:14;98413.91;;;12.85
72278;BMP280;61204;49.980;8.358;2023-03-14T11:32:14;98406.72;;;13.00
72278;BMP280;61204;49.980;8.358;2023-03-14T11:35:03;98422.22;;;13.13
72278;BMP280;61204;49.980;8.358;2023-03-14T11:37:46;98421.16;;;13.26
72278;BMP280;61204;49.980;8.358;2023-03-14T11:40:21;98410.63;;;13.19
72278;BMP280;61204;49.980;8.358;2023-03-14T11:43:34;98426.44;;;13.18
72278;BMP280;61204;49.980;8.358;2023-03-14T11:45:45;98423.81;;;12.96
72278;BMP280;61204;49.980;8.358;2023-03-14T11:51:26;98411.31;;;12.17
72278;BMP280;61204;49.980;8.358;2023-03-14T11:57:09;98459.66;;;12.26
72278;BMP280;61204;49.980;8.358;2023-03-14T12:10:52;98558.38;;;11.59
72278;BMP280;61204;49.980;8.358;2023-03-14T12:13:41;98625.91;;;11.48
72278;BMP280;61204;49.980;8.358;2023-03-14T12:18:49;98625.72;;;11.62
72278;BMP280;61204;49.980;8.358;2023-03-14T12:21:17;98659.00;;;11.72
72278;BMP280;61204;49.980;8.358;2023-03-14T12:23:50;98667.19;;;11.70
72278;BMP280;61204;49.980;8.358;2023-03-14T12:26:26;98668.16;;;11.79
72278;BMP280;61204;49.980;8.358;2023-03-14T12:29:16;98699.34;;;11.87
72278;BMP280;61204;49.980;8.358;2023-03-14T12:31:42;98704.06;;;12.05
72278;BMP280;61204;49.980;8.358;2023-03-14T12:44:53;98742.81;;;12.52
72278;BMP280;61204;49.980;8.358;2023-03-14T12:50:34;98780.56;;;12.52
72278;BMP280;61204;49.980;8.358;2023-03-14T12:56:22;98789.50;;;12.33
72278;BMP280;61204;49.980;8.358;2023-03-14T13:02:14;98797.78;;;11.95
72278;BMP280;61204;49.980;8.358;2023-03-14T13:05:08;98808.88;;;11.61
72278;BMP280;61204;49.980;8.358;2023-03-14T13:12:57;98857.03;;;12.38
72278;BMP280;61204;49.980;8.358;2023-03-14T13:15:43;98862.25;;;12.49
72278;BMP280;61204;49.980;8.358;2023-03-14T13:18:15;98894.59;;;12.51
72278;BMP280;61204;49.980;8.358;2023-03-14T13:21:21;98891.22;;;11.97
72278;BMP280;61204;49.980;8.358;2023-03-14T13:26:32;98888.75;;;10.07
72278;BMP280;61204;49.980;8.358;2023-03-14T13:29:23;98888.44;;;9.86
72278;BMP280;61204;49.980;8.358;2023-03-14T13:31:51;98902.31;;;9.76
72278;BMP280;61204;49.980;8.358;2023-03-14T13:34:24;98893.97;;;9.44
72278;BMP280;61204;49.980;8.358;2023-03-14T13:36:59;98905.22;;;9.37
72278;BMP280;61204;49.980;8.358;2023-03-14T13:39:25;98900.34;;;9.49
72278;BMP280;61204;49.980;8.358;2023-03-14T13:41:55;98913.88;;;9.88
72278;BMP280;61204;49.980;8.358;2023-03-14T13:46:59;98934.88;;;10.58
72278;BMP280;61204;49.980;8.358;2023-03-14T13:49:29;98937.84;;;10.78
72278;BMP280;61204;49.980;8.358;2023-03-14T13:52:00;98967.69;;;11.20
72278;BMP280;61204;49.980;8.358;2023-03-14T13:54:26;98977.19;;;11.84
72278;BMP280;61204;49.980;8.358;2023-03-14T13:57:04;98993.25;;;12.25
72278;BMP280;61204;49.980;8.358;2023-03-14T13:59:31;99001.41;;;12.41
72278;BMP280;61204;49.980;8.358;2023-03-14T14:02:01;99025.03;;;12.66
72278;BMP280;61204;49.980;8.358;2023-03-14T14:04:40;99021.09;;;12.53
72278;BMP280;61204;49.980;8.358;2023-03-14T14:07:09;99036.75;;;12.31
72278;BMP280;61204;49.980;8.358;2023-03-14T14:09:44;99036.59;;;12.82
72278;BMP280;61204;49.980;8.358;2023-03-14T14:12:17;99033.25;;;12.83
72278;BMP280;61204;49.980;8.358;2023-03-14T14:17:32;99057.56;;;13.90
72278;BMP280;61204;49.980;8.358;2023-03-14T14:20:28;99075.69;;;13.36
72278;BMP280;61204;49.980;8.358;2023-03-14T14:23:10;99050.84;;;12.76
72278;BMP280;61204;49.980;8.358;2023-03-14T14:25:44;99092.03;;;12.05
72278;BMP280;61204;49.980;8.358;2023-03-14T14:28:25;99085.31;;;11.59
72278;BMP280;61204;49.980;8.358;2023-03-14T14:31:04;99094.78;;;11.56
72278;BMP280;61204;49.980;8.358;2023-03-14T14:36:32;99140.66;;;11.08
72278;BMP280;61204;49.980;8.358;2023-03-14T14:39:17;99130.69;;;10.85
72278;BMP280;61204;49.980;8.358;2023-03-14T14:41:47;99150.78;;;10.89
72278;BMP280;61204;49.980;8.358;2023-03-14T14:44:16;99132.16;;;10.72
72278;BMP280;61204;49.980;8.358;2023-03-14T14:46:55;99166.81;;;10.95
72278;BMP280;61204;49.980;8.358;2023-03-14T14:49:27;99171.91;;;11.16
72278;BMP280;61204;49.980;8.358;2023-03-14T14:52:00;99160.88;;;11.30
72278;BMP280;61204;49.980;8.358;2023-03-14T14:54:33;99203.19;;;11.41
72278;BMP280;61204;49.980;8.358;2023-03-14T14:57:05;99193.94;;;11.80
72278;BMP280;61204;49.980;8.358;2023-03-14T14:59:43;99215.19;;;12.26
72278;BMP280;61204;49.980;8.358;2023-03-14T15:02:22;99203.06;;;12.16
72278;BMP280;61204;49.980;8.358;2023-03-14T15:05:00;99233.38;;;12.02
72278;BMP280;61204;49.980;8.358;2023-03-14T15:07:26;99226.38;;;12.15
72278;BMP280;61204;49.980;8.358;2023-03-14T15:09:51;99253.09;;;11.98
72278;BMP280;61204;49.980;8.358;2023-03-14T15:12:17;99256.00;;;11.26
72278;BMP280;61204;49.980;8.358;2023-03-14T15:14:42;99266.66;;;10.76
72278;BMP280;61204;49.980;8.358;2023-03-14T15:17:11;99276.22;;;10.61
72278;BMP280;61204;49.980;8.358;2023-03-14T15:19:38;99264.56;;;10.08
72278;BMP280;61204;49.980;8.358;2023-03-14T15:22:04;99278.88;;;10.06
72278;BMP280;61204;49.980;8.358;2023-03-14T15:24:37;99285.72;;;9.80
72278;BMP280;61204;49.980;8.358;2023-03-14T15:27:04;99283.00;;;9.68
72278;BMP280;61204;49.980;8.358;2023-03-14T15:29:37;99289.00;;;9.53
72278;BMP280;61204;49.980;8.358;2023-03-14T15:32:03;99288.22;;;9.50
72278;BMP280;61204;49.980;8.358;2023-03-14T15:34:29;99293.69;;;9.50
72278;BMP280;61204;49.980;8.358;2023-03-14T15:36:54;99291.28;;;9.45
72278;BMP280;61204;49.980;8.358;2023-03-14T15:39:22;99296.94;;;9.35
72278;BMP280;61204;49.980;8.358;2023-03-14T15:41:48;99311.09;;;9.32
72278;BMP280;61204;49.980;8.358;2023-03-14T15:44:13;99320.63;;;9.19
72278;BMP280;61204;49.980;8.358;2023-03-14T15:46:38;99326.19;;;9.33
72278;BMP280;61204;49.980;8.358;2023-03-14T15:49:04;99329.88;;;9.25
72278;BMP280;61204;49.980;8.358;2023-03-14T15:51:29;99331.69;;;9.21
72278;BMP280;61204;49.980;8.358;2023-03-14T15:53:55;99338.72;;;9.24
72278;BMP280;61204;49.980;8.358;2023-03-14T15:56:20;99356.06;;;9.17
72278;BMP280;61204;49.980;8.358;2023-03-14T15:58:49;99360.34;;;9.08